Time;durP1;ratioP1;P1;durP2;ratioP2;P2;SDS_P1;SDS_P2;PMS_P1;PMS_P2;Temp;Humidity;BMP_temperature;BMP_pressure;BME280_temperature;BME280_humidity;BME280_pressure;Samples;Min_cycle;Max_cycle;Signal;HPM_P1;HPM_P2
2022/10/05 00:01:24;;;;;;;21.00;10.30;;;;;;;8.45;100.00;100899.91;5043588;28;20205;-72
2022/10/05 00:03:57;;;;;;;11.38;8.60;;;;;;;8.51;100.00;100889.03;5043768;28;20718;-74
2022/10/05 00:06:25;;;;;;;20.50;11.50;;;;;;;8.31;100.00;100898.47;5078335;22;20316;-73
2022/10/05 00:08:51;;;;;;;16.13;10.00;;;;;;;8.29;100.00;100884.22;5069530;28;20204;-73
2022/10/05 00:11:18;;;;;;;12.85;9.05;;;;;;;8.27;100.00;100885.19;5077732;28;20294;-74
2022/10/05 00:13:45;;;;;;;14.35;10.45;;;;;;;8.30;100.00;100885.13;5077551;28;20236;-73
2022/10/05 00:16:15;;;;;;;18.23;9.80;;;;;;;8.21;100.00;100878.19;5063692;28;20250;-72
2022/10/05 00:18:45;;;;;;;24.17;11.35;;;;;;;8.27;100.00;100869.09;5058135;28;20213;-73
2022/10/05 00:21:22;;;;;;;16.25;11.65;;;;;;;8.26;100.00;100867.34;5059216;28;20280;-75
2022/10/05 00:23:49;;;;;;;19.00;10.95;;;;;;;8.21;100.00;100855.84;5077855;28;20581;-73
2022/10/05 00:26:20;;;;;;;13.35;10.00;;;;;;;8.14;100.00;100847.09;5078067;28;20217;-74
2022/10/05 00:28:47;;;;;;;17.48;11.25;;;;;;;8.15;100.00;100854.22;5077848;28;20185;-76
2022/10/05 00:31:16;;;;;;;25.85;12.45;;;;;;;8.31;100.00;100851.97;5077523;28;20204;-75
2022/10/05 00:33:43;;;;;;;20.98;14.40;;;;;;;8.52;100.00;100848.72;5075780;28;20237;-73
2022/10/05 00:36:10;;;;;;;20.95;12.38;;;;;;;8.65;100.00;100845.66;5057662;28;20221;-73
2022/10/05 00:38:37;;;;;;;24.83;14.00;;;;;;;8.71;100.00;100840.97;5057497;28;20205;-75
2022/10/05 00:41:09;;;;;;;20.13;12.88;;;;;;;8.86;100.00;100841.41;5056323;28;20576;-75
2022/10/05 00:44:15;;;;;;;22.95;15.15;;;;;;;8.95;100.00;100844.72;5055563;28;20240;-76
2022/10/05 00:46:54;;;;;;;22.27;15.75;;;;;;;8.96;100.00;100833.03;4993337;28;20244;-74
2022/10/05 00:49:31;;;;;;;26.90;14.75;;;;;;;9.16;100.00;100826.13;5007207;28;20731;-73
2022/10/05 00:52:19;;;;;;;24.02;15.38;;;;;;;9.04;100.00;100813.97;5013163;28;20199;-75
2022/10/05 00:54:57;;;;;;;19.83;14.98;;;;;;;8.96;100.00;100811.53;5012858;28;20692;-74
2022/10/05 00:57:36;;;;;;;27.35;15.40;;;;;;;9.01;100.00;100810.50;5012766;28;20222;-74
2022/10/05 01:00:07;;;;;;;27.15;17.30;;;;;;;9.05;100.00;100822.91;5012639;28;20198;-74
2022/10/05 01:02:47;;;;;;;23.70;15.70;;;;;;;9.13;100.00;100820.84;4999895;28;20219;-73
2022/10/05 01:05:21;;;;;;;23.35;15.88;;;;;;;9.13;100.00;100818.16;4992680;28;20447;-74
2022/10/05 01:07:55;;;;;;;27.23;16.45;;;;;;;9.18;100.00;100825.16;4993069;28;20899;-75
2022/10/05 01:10:30;;;;;;;29.63;17.77;;;;;;;9.16;100.00;100828.81;4993285;28;20204;-73
2022/10/05 01:13:07;;;;;;;28.23;18.65;;;;;;;9.17;100.00;100814.44;4992631;28;20278;-75
2022/10/05 01:15:39;;;;;;;28.67;19.02;;;;;;;9.20;100.00;100811.66;4997607;28;20216;-73
2022/10/05 01:18:12;;;;;;;29.40;20.10;;;;;;;9.23;100.00;100808.88;5012498;28;20224;-74
2022/10/05 01:20:49;;;;;;;28.90;19.75;;;;;;;9.27;100.00;100810.53;5012527;28;20211;-74
2022/10/05 01:23:33;;;;;;;26.88;18.70;;;;;;;9.17;100.00;100803.69;5035287;28;20194;-74
2022/10/05 01:26:17;;;;;;;33.58;19.98;;;;;;;9.24;100.00;100805.25;5074638;28;20220;-75
2022/10/05 01:28:51;;;;;;;28.15;19.40;;;;;;;9.42;100.00;100805.56;5074078;28;20206;-73
2022/10/05 01:31:26;;;;;;;34.30;22.42;;;;;;;9.40;100.00;100810.97;5055143;28;20196;-73
2022/10/05 01:34:01;;;;;;;27.17;19.80;;;;;;;9.36;100.00;100807.53;5054603;28;20556;-73
2022/10/05 01:36:35;;;;;;;30.13;19.50;;;;;;;9.30;100.00;100809.56;5054576;28;20227;-74
2022/10/05 01:39:10;;;;;;;22.17;16.30;;;;;;;9.24;100.00;100815.13;5054787;28;20208;-75
2022/10/05 01:41:56;;;;;;;25.02;18.50;;;;;;;9.21;100.00;100812.56;5042907;28;20188;-73
2022/10/05 01:44:30;;;;;;;29.55;21.52;;;;;;;9.18;100.00;100810.84;5074742;28;20206;-73
2022/10/05 01:47:03;;;;;;;32.58;21.77;;;;;;;9.26;100.00;100814.13;5075271;28;20198;-74
2022/10/05 01:49:37;;;;;;;33.50;21.15;;;;;;;9.24;100.00;100816.00;5066691;28;20179;-74
2022/10/05 01:52:16;;;;;;;30.85;20.52;;;;;;;9.29;100.00;100813.16;5055715;28;20648;-74
2022/10/05 01:54:57;;;;;;;27.60;21.05;;;;;;;9.16;100.00;100807.31;5054456;28;20255;-73
2022/10/05 01:57:35;;;;;;;29.65;20.63;;;;;;;9.12;100.00;100800.28;5053229;28;20764;-73
2022/10/05 02:00:06;;;;;;;32.42;21.67;;;;;;;9.20;100.00;100800.91;5054095;28;20198;-75
2022/10/05 02:02:37;;;;;;;32.13;21.63;;;;;;;9.07;100.00;100786.13;5054406;28;20256;-72
2022/10/05 02:05:08;;;;;;;30.38;19.17;;;;;;;8.97;100.00;100778.34;5053458;28;20232;-74
2022/10/05 02:07:39;;;;;;;30.77;21.15;;;;;;;8.98;100.00;100777.44;5052942;28;20204;-72
2022/10/05 02:10:14;;;;;;;31.08;21.60;;;;;;;9.15;100.00;100768.81;5053406;28;20197;-74
2022/10/05 02:12:43;;;;;;;33.50;21.60;;;;;;;9.12;100.00;100758.16;5053922;28;20565;-73
2022/10/05 02:15:14;;;;;;;28.52;19.05;;;;;;;9.11;100.00;100760.91;5053836;28;20222;-72
2022/10/05 02:17:46;;;;;;;30.92;22.30;;;;;;;9.27;100.00;100756.78;5067512;28;20196;-73
2022/10/05 02:20:20;;;;;;;34.72;23.10;;;;;;;9.34;100.00;100760.13;5073946;28;20561;-74
2022/10/05 02:22:52;;;;;;;31.20;22.23;;;;;;;9.34;100.00;100763.69;5074195;28;20549;-73
2022/10/05 02:25:22;;;;;;;31.23;21.35;;;;;;;9.41;100.00;100759.00;5073964;28;20223;-75
2022/10/05 02:27:53;;;;;;;34.25;23.23;;;;;;;9.45;100.00;100755.25;5059359;28;20211;-74
2022/10/05 02:30:21;;;;;;;35.15;23.65;;;;;;;9.39;100.00;100748.28;5069106;28;20191;-73
2022/10/05 02:32:54;;;;;;;31.77;22.25;;;;;;;9.32;100.00;100757.50;5066624;28;20671;-74
2022/10/05 02:35:22;;;;;;;35.90;22.92;;;;;;;9.34;100.00;100746.69;5053342;28;20228;-74
2022/10/05 02:38:00;;;;;;;32.05;21.90;;;;;;;9.35;100.00;100749.31;5053391;28;20214;-73
2022/10/05 02:40:46;;;;;;;34.90;23.80;;;;;;;9.45;100.00;100743.63;5053392;28;20188;-74
2022/10/05 02:43:23;;;;;;;34.58;22.10;;;;;;;9.34;100.00;100738.63;5053148;28;20665;-74
2022/10/05 02:45:59;;;;;;;29.42;22.10;;;;;;;9.27;100.00;100729.00;5053306;28;20310;-74
2022/10/05 02:48:40;;;;;;;33.47;22.40;;;;;;;9.23;100.00;100722.00;5053563;28;20191;-74
2022/10/05 02:51:15;;;;;;;34.97;21.15;;;;;;;9.26;100.00;100720.06;5069201;28;20651;-72
2022/10/05 02:53:59;;;;;;;29.48;21.20;;;;;;;9.25;100.00;100726.38;5062923;28;20206;-73
2022/10/05 02:56:33;;;;;;;29.75;20.02;;;;;;;9.22;100.00;100721.09;5053521;28;20305;-75
2022/10/05 02:59:03;;;;;;;26.40;20.33;;;;;;;9.21;100.00;100729.25;5055362;28;20276;-74
2022/10/05 03:01:35;;;;;;;28.70;20.35;;;;;;;9.17;100.00;100729.31;5057422;28;20188;-73
2022/10/05 03:04:14;;;;;;;31.17;20.40;;;;;;;9.19;100.00;100742.72;5064391;28;20186;-73
2022/10/05 03:06:54;;;;;;;29.15;21.17;;;;;;;9.42;100.00;100741.03;5073333;28;20228;-75
2022/10/05 03:09:23;;;;;;;30.67;21.10;;;;;;;9.48;100.00;100751.59;5073208;28;20188;-74
2022/10/05 03:12:01;;;;;;;27.40;19.40;;;;;;;9.33;100.00;100745.78;5073993;28;20194;-73
2022/10/05 03:14:37;;;;;;;31.95;20.10;;;;;;;9.21;100.00;100750.72;5073432;28;20213;-75
2022/10/05 03:17:10;;;;;;;29.77;19.98;;;;;;;9.11;100.00;100751.06;5071090;28;20218;-74
2022/10/05 03:19:58;;;;;;;35.25;18.10;;;;;;;9.01;100.00;100752.28;5053526;28;20187;-74
2022/10/05 03:22:36;;;;;;;26.23;18.30;;;;;;;8.88;100.00;100762.53;5054818;28;20528;-72
2022/10/05 03:25:31;;;;;;;25.90;18.10;;;;;;;8.67;100.00;100756.06;5053091;28;20594;-73
2022/10/05 03:28:08;;;;;;;30.55;20.30;;;;;;;8.81;100.00;100758.28;5030935;28;20207;-76
2022/10/05 03:30:42;;;;;;;30.33;18.23;;;;;;;8.72;100.00;100766.66;5034791;28;20642;-74
2022/10/05 03:33:17;;;;;;;26.50;18.13;;;;;;;8.78;100.00;100758.41;5034510;28;20558;-75
2022/10/05 03:35:52;;;;;;;33.03;20.92;;;;;;;9.02;100.00;100755.84;5046638;28;20229;-74
2022/10/05 03:38:24;;;;;;;29.08;19.15;;;;;;;8.89;100.00;100764.31;5067667;28;20216;-74
2022/10/05 03:40:56;;;;;;;43.38;27.10;;;;;;;9.13;100.00;100767.97;5064185;28;20255;-74
2022/10/05 03:43:42;;;;;;;45.30;30.90;;;;;;;9.22;100.00;100774.84;5067729;28;20217;-74
2022/10/05 03:46:18;;;;;;;34.33;22.25;;;;;;;9.16;100.00;100769.72;5054864;28;20705;-74
2022/10/05 03:48:52;;;;;;;38.15;22.80;;;;;;;9.18;100.00;100779.47;5060200;28;20192;-73
2022/10/05 03:51:24;;;;;;;37.53;21.77;;;;;;;9.25;100.00;100785.53;5084703;28;20188;-75
2022/10/05 03:53:55;;;;;;;41.33;22.35;;;;;;;9.36;100.00;100788.72;5085995;28;20227;-74
2022/10/05 03:56:30;;;;;;;32.58;20.20;;;;;;;9.43;100.00;100788.50;5091705;28;20226;-72
2022/10/05 03:59:03;;;;;;;34.15;20.50;;;;;;;9.45;100.00;100787.53;5082715;28;20209;-72
2022/10/05 04:01:38;;;;;;;36.58;23.35;;;;;;;9.52;100.00;100788.16;5079419;28;20196;-73
2022/10/05 04:04:13;;;;;;;52.78;24.67;;;;;;;9.45;100.00;100771.41;5083721;28;20193;-73
2022/10/05 04:06:45;;;;;;;41.47;23.63;;;;;;;9.47;100.00;100765.94;5076605;28;20232;-72
2022/10/05 04:09:15;;;;;;;55.13;23.50;;;;;;;9.46;100.00;100767.75;5062125;28;20607;-73
2022/10/05 04:11:47;;;;;;;37.35;21.58;;;;;;;9.44;100.00;100764.25;5052922;28;20222;-74
2022/10/05 04:14:18;;;;;;;60.95;24.67;;;;;;;9.48;100.00;100763.22;5052618;28;20209;-75
2022/10/05 04:16:48;;;;;;;57.08;26.23;;;;;;;9.56;100.00;100755.72;5056363;28;20710;-76
2022/10/05 04:19:21;;;;;;;54.88;24.50;;;;;;;9.64;100.00;100766.25;5056852;28;20280;-73
2022/10/05 04:21:51;;;;;;;51.70;27.25;;;;;;;9.68;100.00;100762.50;5054495;28;20437;-75
2022/10/05 04:24:23;;;;;;;44.90;26.75;;;;;;;9.65;100.00;100753.66;5057902;28;20183;-77
2022/10/05 04:26:54;;;;;;;66.05;28.65;;;;;;;9.68;100.00;100761.59;5058904;28;20618;-74
2022/10/05 04:29:32;;;;;;;44.95;28.38;;;;;;;9.57;100.00;100762.88;5062164;28;20213;-74
2022/10/05 04:32:16;;;;;;;42.58;26.40;;;;;;;9.64;100.00;100766.25;5063580;28;20660;-74
2022/10/05 04:35:02;;;;;;;44.72;26.70;;;;;;;9.56;100.00;100763.81;5063420;28;20247;-75
2022/10/05 04:37:38;;;;;;;45.20;27.63;;;;;;;9.55;100.00;100772.81;5056227;28;20209;-73
2022/10/05 04:40:19;;;;;;;41.38;26.38;;;;;;;9.62;100.00;100769.91;5056187;28;20380;-75
2022/10/05 04:42:53;;;;;;;47.22;25.88;;;;;;;9.66;100.00;100782.34;5053657;28;20204;-72
2022/10/05 04:45:32;;;;;;;43.58;27.20;;;;;;;9.69;100.00;100783.09;5056163;28;20230;-77
2022/10/05 04:48:16;;;;;;;43.78;26.02;;;;;;;9.64;100.00;100787.75;5068803;28;20194;-75
2022/10/05 04:53:46;;;;;;;44.42;25.20;;;;;;;9.70;100.00;100782.16;5060212;28;20215;-75
2022/10/05 04:56:18;;;;;;;48.05;24.63;;;;;;;9.65;100.00;100789.50;5055008;28;20486;-75
2022/10/05 04:59:03;;;;;;;43.17;25.13;;;;;;;9.55;100.00;100790.78;5055031;28;20204;-75
2022/10/05 05:01:48;;;;;;;44.67;24.02;;;;;;;9.51;100.00;100797.19;5055518;28;20207;-74
2022/10/05 05:04:44;;;;;;;64.00;24.50;;;;;;;9.51;100.00;100797.19;5055643;28;20184;-75
2022/10/05 05:07:27;;;;;;;47.72;25.50;;;;;;;9.43;100.00;100793.88;5050230;28;20692;-74
2022/10/05 05:10:12;;;;;;;59.55;27.40;;;;;;;9.48;100.00;100790.09;5055274;28;20214;-73
2022/10/05 05:12:50;;;;;;;44.95;25.40;;;;;;;9.48;100.00;100789.22;5055820;28;20214;-76
2022/10/05 05:15:34;;;;;;;54.95;27.00;;;;;;;9.48;100.00;100791.91;5055609;28;20232;-76
2022/10/05 05:18:22;;;;;;;53.25;28.63;;;;;;;9.37;100.00;100795.84;5067880;28;20213;-73
2022/10/05 05:20:56;;;;;;;51.67;27.88;;;;;;;9.35;100.00;100792.31;5075389;28;20558;-74
2022/10/05 05:23:32;;;;;;;41.33;25.80;;;;;;;9.40;100.00;100798.41;5081462;28;20187;-75
2022/10/05 05:26:10;;;;;;;45.42;25.45;;;;;;;9.41;100.00;100796.63;5077826;28;20220;-75
2022/10/05 05:28:44;;;;;;;47.65;25.55;;;;;;;9.36;100.00;100796.78;5075558;28;20191;-76
2022/10/05 05:31:20;;;;;;;49.67;28.48;;;;;;;9.32;100.00;100805.00;5075308;28;20198;-75
2022/10/05 05:33:56;;;;;;;47.75;26.42;;;;;;;9.28;100.00;100806.91;5075565;28;20523;-74
2022/10/05 05:36:41;;;;;;;40.78;24.90;;;;;;;9.29;100.00;100805.97;5074044;28;20712;-74
2022/10/05 05:39:27;;;;;;;51.78;25.65;;;;;;;9.13;100.00;100810.09;5074695;28;20193;-76
2022/10/05 05:42:00;;;;;;;41.45;27.25;;;;;;;9.21;100.00;100810.72;5072820;28;20211;-75
2022/10/05 05:44:29;;;;;;;42.95;27.45;;;;;;;9.28;100.00;100822.16;5054924;28;20708;-75
2022/10/05 05:47:01;;;;;;;45.50;26.95;;;;;;;9.29;100.00;100822.09;5055320;28;20208;-75
2022/10/05 05:49:39;;;;;;;44.95;28.08;;;;;;;9.35;100.00;100819.19;5054465;28;20193;-74
2022/10/05 05:52:14;;;;;;;45.60;27.15;;;;;;;9.41;100.00;100826.19;5055320;28;20584;-75
2022/10/05 05:54:49;;;;;;;43.78;28.40;;;;;;;9.39;100.00;100820.00;5056038;28;20214;-76
2022/10/05 05:57:21;;;;;;;48.58;26.90;;;;;;;9.42;100.00;100824.38;5055745;28;20190;-76
2022/10/05 06:00:00;;;;;;;42.90;27.80;;;;;;;9.48;100.00;100819.69;5055321;28;20568;-73
2022/10/05 06:02:38;;;;;;;46.50;27.58;;;;;;;9.59;100.00;100817.50;5055577;28;20314;-74
2022/10/05 06:05:24;;;;;;;54.28;28.38;;;;;;;9.60;100.00;100813.00;5055280;28;20226;-76
2022/10/05 06:07:52;;;;;;;59.28;29.10;;;;;;;9.66;100.00;100807.41;5055610;28;20213;-77
2022/10/05 06:10:28;;;;;;;51.40;27.23;;;;;;;9.73;100.00;100821.53;5055826;28;20208;-75
2022/10/05 06:12:59;;;;;;;54.60;28.23;;;;;;;9.63;100.00;100812.88;5055263;28;20187;-75
2022/10/05 06:15:32;;;;;;;57.53;27.90;;;;;;;9.63;100.00;100810.19;5054891;28;20627;-75
2022/10/05 06:18:03;;;;;;;57.22;28.45;;;;;;;9.67;100.00;100817.22;5055159;28;20232;-75
2022/10/05 06:20:37;;;;;;;54.83;27.23;;;;;;;9.77;100.00;100826.75;5058601;28;20204;-76
2022/10/05 06:23:09;;;;;;;50.42;26.92;;;;;;;9.78;100.00;100820.41;5054828;28;20245;-76
2022/10/05 06:25:51;;;;;;;55.97;26.98;;;;;;;9.93;100.00;100824.38;5053782;28;20234;-75
2022/10/05 06:28:18;;;;;;;56.70;28.83;;;;;;;9.92;100.00;100821.72;5054771;28;20189;-75
2022/10/05 06:30:52;;;;;;;50.83;28.60;;;;;;;9.88;100.00;100825.47;5055134;28;20208;-75
2022/10/05 06:33:28;;;;;;;54.95;27.73;;;;;;;9.99;100.00;100828.66;5054137;28;20188;-75
2022/10/05 06:36:09;;;;;;;53.92;27.45;;;;;;;10.14;100.00;100825.41;5053443;28;20228;-75
2022/10/05 06:39:10;;;;;;;50.90;27.38;;;;;;;10.20;100.00;100822.50;5053202;28;20227;-74
2022/10/05 06:41:54;;;;;;;71.70;27.98;;;;;;;10.14;100.00;100811.94;5050366;28;20212;-76
2022/10/05 06:44:25;;;;;;;49.17;25.73;;;;;;;10.33;100.00;100816.66;5032876;28;20217;-74
2022/10/05 06:47:00;;;;;;;72.00;27.33;;;;;;;10.40;100.00;100821.78;5032284;28;20185;-75
2022/10/05 06:49:31;;;;;;;48.60;23.30;;;;;;;10.40;100.00;100823.56;5032441;28;20199;-75
2022/10/05 06:52:07;;;;;;;52.40;24.95;;;;;;;10.53;100.00;100834.75;5032767;28;20197;-75
2022/10/05 06:54:42;;;;;;;49.30;24.17;;;;;;;10.57;100.00;100841.78;5033721;28;20201;-76
2022/10/05 06:57:19;;;;;;;46.67;23.65;;;;;;;10.57;100.00;100841.78;5038278;28;20662;-74
2022/10/05 06:59:54;;;;;;;44.30;23.77;;;;;;;10.55;100.00;100835.59;5036089;28;20209;-75
2022/10/05 07:02:30;;;;;;;41.92;22.23;;;;;;;10.70;100.00;100845.78;5033994;28;20185;-75
2022/10/05 07:05:21;;;;;;;35.45;19.75;;;;;;;10.66;100.00;100848.66;5032248;28;20225;-75
2022/10/05 07:07:53;;;;;;;44.83;23.42;;;;;;;10.75;100.00;100845.59;5032307;28;20205;-73
2022/10/05 07:10:30;;;;;;;45.08;20.45;;;;;;;10.81;100.00;100850.75;5031267;28;20186;-73
2022/10/05 07:13:12;;;;;;;50.08;22.15;;;;;;;10.74;100.00;100854.59;5032501;28;20190;-75
2022/10/05 07:15:44;;;;;;;51.80;22.20;;;;;;;10.72;100.00;100851.97;5032177;28;20229;-75
2022/10/05 07:18:39;;;;;;;37.10;20.52;;;;;;;10.87;100.00;100855.00;5032122;28;20201;-74
2022/10/05 07:21:15;;;;;;;48.45;21.52;;;;;;;10.89;100.00;100854.00;5032279;28;20213;-74
2022/10/05 07:24:01;;;;;;;51.83;22.88;;;;;;;10.89;100.00;100858.53;5032586;28;20211;-74
2022/10/05 07:26:33;;;;;;;42.15;20.20;;;;;;;11.03;100.00;100851.66;5031976;28;20248;-74
2022/10/05 07:29:32;;;;;;;43.05;20.90;;;;;;;11.21;100.00;100851.84;5032187;28;20188;-74
2022/10/05 07:32:08;;;;;;;45.00;22.83;;;;;;;11.38;100.00;100857.41;5010614;28;20206;-75
2022/10/05 07:34:46;;;;;;;35.88;20.70;;;;;;;11.56;100.00;100852.22;5010262;28;20621;-75
2022/10/05 07:40:11;;;;;;;45.53;19.80;;;;;;;11.50;100.00;100860.53;5011008;28;20623;-75
2022/10/05 07:42:55;;;;;;;31.58;18.77;;;;;;;11.80;100.00;100867.34;4998047;28;20284;-76
2022/10/05 07:45:28;;;;;;;34.13;19.65;;;;;;;11.78;100.00;100860.25;5015741;28;20253;-75
2022/10/05 07:47:57;;;;;;;31.05;18.50;;;;;;;11.96;100.00;100867.59;5011186;28;20253;-76
2022/10/05 07:50:29;;;;;;;30.27;18.63;;;;;;;11.83;100.00;100864.50;5011132;28;20217;-74
2022/10/05 07:52:58;;;;;;;36.00;19.45;;;;;;;11.88;100.00;100869.75;5010029;28;20660;-74
2022/10/05 07:55:27;;;;;;;33.53;18.98;;;;;;;11.90;100.00;100884.06;5009301;28;20278;-75
2022/10/05 07:58:05;;;;;;;28.65;18.70;;;;;;;12.02;100.00;100878.09;5009266;28;20214;-75
2022/10/05 08:00:51;;;;;;;27.83;18.73;;;;;;;12.13;100.00;100880.34;5012915;28;20198;-75
2022/10/05 08:03:29;;;;;;;27.95;20.10;;;;;;;11.84;100.00;100887.84;5013211;28;20194;-74
2022/10/05 08:05:58;;;;;;;29.92;20.33;;;;;;;11.87;100.00;100898.56;5013557;28;20276;-76
2022/10/05 08:08:35;;;;;;;28.58;20.15;;;;;;;11.75;100.00;100890.06;5030855;28;20288;-76
2022/10/05 08:11:08;;;;;;;30.85;20.77;;;;;;;11.89;100.00;100891.28;5035644;28;20204;-76
2022/10/05 08:13:42;;;;;;;29.85;18.15;;;;;;;11.96;100.00;100888.28;5035460;28;20193;-75
2022/10/05 08:16:13;;;;;;;26.92;19.63;;;;;;;12.03;100.00;100878.97;5035072;28;20222;-74
2022/10/05 08:18:50;;;;;;;27.67;19.65;;;;;;;12.09;100.00;100876.00;5035433;28;20182;-75
2022/10/05 08:21:22;;;;;;;29.85;20.83;;;;;;;11.97;100.00;100880.13;5035950;28;20209;-77
2022/10/05 08:23:53;;;;;;;29.42;21.23;;;;;;;11.96;100.00;100883.78;5035599;28;20186;-75
2022/10/05 08:26:28;;;;;;;29.95;22.00;;;;;;;12.11;100.00;100879.53;5035028;28;20217;-75
2022/10/05 08:29:06;;;;;;;28.83;20.65;;;;;;;12.20;100.00;100881.81;5037517;28;20211;-75
2022/10/05 08:31:36;;;;;;;28.75;21.33;;;;;;;12.44;100.00;100878.97;5037739;28;20685;-76
2022/10/05 08:34:18;;;;;;;30.38;20.77;;;;;;;12.39;100.00;100875.59;5036818;28;20591;-75
2022/10/05 08:36:55;;;;;;;29.50;21.63;;;;;;;12.42;100.00;100868.22;5035221;28;20236;-74
2022/10/05 08:39:26;;;;;;;35.70;23.10;;;;;;;12.31;100.00;100870.53;5035158;28;20563;-75
2022/10/05 08:42:14;;;;;;;35.25;22.77;;;;;;;12.37;100.00;100875.69;5036340;28;20202;-74
2022/10/05 08:45:21;;;;;;;29.33;20.98;;;;;;;12.57;100.00;100863.94;5054753;28;20574;-74
2022/10/05 08:48:20;;;;;;;29.30;21.30;;;;;;;12.80;100.00;100868.28;5054336;28;20195;-76
2022/10/05 08:51:12;;;;;;;33.45;22.15;;;;;;;12.98;100.00;100862.94;5054925;28;20201;-75
2022/10/05 08:54:03;;;;;;;33.33;21.60;;;;;;;13.15;100.00;100863.00;5054671;28;20658;-74
2022/10/05 08:56:41;;;;;;;29.80;21.98;;;;;;;13.06;100.00;100863.44;5054782;28;20228;-78
2022/10/05 08:59:49;;;;;;;29.05;21.75;;;;;;;12.93;100.00;100864.06;5054894;28;20193;-76
2022/10/05 09:02:26;;;;;;;29.67;20.42;;;;;;;13.01;100.00;100869.06;4915761;29;20628;-74
2022/10/05 09:05:15;;;;;;;28.73;21.80;;;;;;;13.15;100.00;100868.41;4915639;29;20762;-74
2022/10/05 09:08:19;;;;;;;27.13;20.15;;;;;;;13.13;100.00;100857.66;4915413;29;20212;-74
2022/10/05 09:11:02;;;;;;;25.30;20.52;;;;;;;13.19;100.00;100861.03;4858605;29;20215;-74
2022/10/05 09:13:53;;;;;;;28.95;20.65;;;;;;;13.17;100.00;100868.34;4860000;29;20338;-75
2022/10/05 09:16:38;;;;;;;26.98;21.92;;;;;;;13.29;100.00;100865.06;4859401;29;20238;-75
2022/10/05 09:19:26;;;;;;;29.27;20.70;;;;;;;13.54;100.00;100859.28;4859770;29;20391;-76
2022/10/05 09:22:04;;;;;;;27.90;22.27;;;;;;;13.63;100.00;100860.66;4860333;29;20208;-75
2022/10/05 09:24:51;;;;;;;25.85;20.85;;;;;;;13.85;100.00;100849.63;4859892;29;20275;-76
2022/10/05 09:27:22;;;;;;;31.08;22.00;;;;;;;13.82;100.00;100842.53;4859269;29;20726;-75
2022/10/05 09:30:25;;;;;;;28.85;22.92;;;;;;;13.90;100.00;100848.41;4859159;29;20223;-75
2022/10/05 09:33:24;;;;;;;26.63;21.10;;;;;;;14.04;100.00;100839.59;4804659;29;20317;-76
2022/10/05 09:36:11;;;;;;;27.75;21.15;;;;;;;14.23;100.00;100839.47;4804435;29;20748;-75
2022/10/05 09:39:02;;;;;;;26.92;20.75;;;;;;;14.66;100.00;100837.16;4842445;29;20213;-74
2022/10/05 09:41:47;;;;;;;27.70;22.17;;;;;;;15.38;100.00;100835.75;4932503;29;20220;-74
2022/10/05 09:44:55;;;;;;;24.05;20.52;;;;;;;16.60;100.00;100820.25;4896621;29;20195;-76
2022/10/05 09:47:54;;;;;;;21.73;19.02;;;;;;;15.96;100.00;100815.13;4902846;29;20213;-75
2022/10/05 09:50:51;;;;;;;26.02;20.02;;;;;;;15.57;100.00;100819.25;4953500;29;20204;-75
2022/10/05 09:53:39;;;;;;;24.58;21.15;;;;;;;15.75;100.00;100808.31;4953747;29;20209;-75
2022/10/05 09:56:30;;;;;;;26.15;21.25;;;;;;;15.68;100.00;100812.31;4953526;29;20789;-75
2022/10/05 09:59:20;;;;;;;23.33;20.33;;;;;;;16.33;100.00;100796.56;4956644;29;20215;-75
2022/10/05 10:02:08;;;;;;;23.77;19.77;;;;;;;17.29;100.00;100792.09;4961845;28;20207;-76
2022/10/05 10:05:05;;;;;;;23.13;17.17;;;;;;;18.53;100.00;100779.84;4958128;28;20193;-75
2022/10/05 10:07:54;;;;;;;22.70;18.83;;;;;;;19.36;100.00;100783.78;5015792;28;20198;-75
2022/10/05 10:10:51;;;;;;;20.03;17.77;;;;;;;20.31;100.00;100775.50;5035684;28;20183;-74
2022/10/05 10:13:44;;;;;;;19.87;17.70;;;;;;;19.74;100.00;100783.59;5034928;28;20425;-75
2022/10/05 10:16:35;;;;;;;18.00;16.20;;;;;;;19.86;100.00;100767.22;5033838;28;20481;-75
2022/10/05 10:19:27;;;;;;;21.83;17.03;;;;;;;19.89;100.00;100769.72;4933447;29;20821;-75
2022/10/05 10:22:30;;;;;;;19.60;16.10;;;;;;;19.74;100.00;100771.78;4934393;29;20453;-74
2022/10/05 10:25:23;;;;;;;22.33;18.00;;;;;;;20.13;100.00;100767.78;4952780;28;20463;-75
2022/10/05 10:28:14;;;;;;;21.83;18.40;;;;;;;19.87;100.00;100777.16;4938218;29;20444;-77
2022/10/05 10:31:11;;;;;;;23.33;19.73;;;;;;;19.28;100.00;100775.28;4953449;28;20463;-75
2022/10/05 10:34:17;;;;;;;24.10;19.40;;;;;;;20.23;100.00;100765.16;4952664;29;20424;-75
2022/10/05 10:37:04;;;;;;;23.77;18.60;;;;;;;20.92;97.12;100770.50;4953238;28;21059;-75
2022/10/05 10:39:50;;;;;;;23.10;17.77;;;;;;;21.03;98.22;100766.88;4954038;29;20420;-74
2022/10/05 10:42:38;;;;;;;17.77;13.23;;;;;;;20.61;98.90;100761.22;4954304;29;20454;-75
2022/10/05 10:45:35;;;;;;;12.83;11.00;;;;;;;20.50;99.75;100775.72;4953751;29;20543;-75
2022/10/05 10:48:09;;;;;;;12.30;11.03;;;;;;;19.88;100.00;100770.72;4916439;29;20442;-73
2022/10/05 10:51:08;;;;;;;15.20;11.83;;;;;;;20.28;100.00;100754.72;4915793;29;20817;-74
2022/10/05 10:54:07;;;;;;;12.33;11.10;;;;;;;21.75;92.47;100755.25;4914368;29;20480;-74
2022/10/05 10:56:58;;;;;;;10.07;8.93;;;;;;;22.55;84.72;100755.63;4931839;29;20506;-77
2022/10/05 10:59:57;;;;;;;9.63;8.20;;;;;;;23.88;72.34;100745.13;4949867;29;20456;-75
2022/10/05 11:03:03;;;;;;;8.10;7.30;;;;;;;25.74;60.16;100737.59;4952212;29;20471;-75
2022/10/05 11:05:55;;;;;;;6.50;5.70;;;;;;;25.14;63.91;100739.06;4950357;29;20480;-76
2022/10/05 11:08:47;;;;;;;6.30;5.70;;;;;;;23.75;69.25;100745.44;4952393;29;20813;-75
2022/10/05 11:11:38;;;;;;;6.50;5.90;;;;;;;23.07;75.06;100734.41;4952521;29;20954;-74
2022/10/05 11:14:27;;;;;;;7.57;6.80;;;;;;;21.43;89.24;100734.25;4952624;29;20883;-74
2022/10/05 11:17:17;;;;;;;8.60;7.50;;;;;;;21.08;94.35;100737.25;4952411;29;20472;-76
2022/10/05 11:19:55;;;;;;;6.43;5.83;;;;;;;21.34;93.94;100729.53;4951724;28;20490;-74
2022/10/05 11:22:45;;;;;;;7.40;5.73;;;;;;;20.82;98.13;100723.00;4951646;29;20444;-75
2022/10/05 11:25:49;;;;;;;6.20;5.60;;;;;;;20.28;100.00;100716.41;4985204;28;20499;-74
2022/10/05 11:28:53;;;;;;;6.73;5.60;;;;;;;19.73;100.00;100710.78;5010125;28;20451;-75
2022/10/05 11:31:36;;;;;;;7.50;6.80;;;;;;;19.51;100.00;100717.03;4932742;29;20448;-75
2022/10/05 11:34:38;;;;;;;8.27;6.10;;;;;;;19.24;100.00;100700.91;4960165;28;20502;-73
2022/10/05 11:37:39;;;;;;;9.50;5.60;;;;;;;18.85;100.00;100718.47;4975232;28;20467;-74
2022/10/05 11:40:55;;;;;;;6.03;5.40;;;;;;;18.95;100.00;100700.44;4976225;28;20453;-75
2022/10/05 11:43:57;;;;;;;6.70;5.88;;;;;;;19.05;100.00;100711.53;4956420;29;20226;-74
2022/10/05 11:46:29;;;;;;;6.00;5.40;;;;;;;19.42;100.00;100700.50;4960633;29;20216;-75
2022/10/05 11:49:15;;;;;;;6.77;4.97;;;;;;;19.27;100.00;100697.97;4966050;28;20209;-74
2022/10/05 11:51:52;;;;;;;6.27;5.70;;;;;;;19.51;100.00;100697.03;4970319;29;20428;-75
2022/10/05 11:54:31;;;;;;;9.20;4.83;;;;;;;19.65;100.00;100705.03;4974511;29;20439;-75
2022/10/05 11:57:04;;;;;;;8.20;5.23;;;;;;;19.62;100.00;100705.25;4977464;28;20483;-74
2022/10/05 11:59:38;;;;;;;7.47;5.60;;;;;;;19.43;100.00;100702.25;4977609;28;20444;-75
2022/10/05 12:02:34;;;;;;;6.93;5.73;;;;;;;19.26;100.00;100701.66;4976852;29;20466;-75
2022/10/05 12:05:09;;;;;;;6.27;5.37;;;;;;;19.04;100.00;100698.84;4990329;22;20472;-76
2022/10/05 12:07:46;;;;;;;6.23;5.50;;;;;;;19.03;100.00;100694.38;5016135;28;20472;-76
2022/10/05 12:10:27;;;;;;;6.37;4.87;;;;;;;19.03;100.00;100689.78;5004468;28;20434;-74